Portada
METAR-TAF:

METAR-TAF

Aeroports :

Lihue, Hawaii, Estats Units d'Amèrica

latitud: 21-59-02N, longitud: 159-20-28W, altitud: 45 m

Observació

L'informe es va fer fa 1 hora i 1 minuts, a les 08:53 UTC
Vent 16 kt del Est/Nord-Est
Temperatura 25°C
Humitat 69%
Pressió 1022 hPa
Visibilitat: 16.1 km
Cel clar

METAR: PHLI 050853Z AUTO 06016KT 10SM CLR 25/19 A3017 RMK AO2 SLP212 T02500189 53009 TSNO

Hora: 23:54 (09:54 UTC)

Pronòstic

L'informe es va fer fa 4 hores i 18 minuts, a les 05:36 UTC
Pronòstic vàlid del 05 a les 06 UTC al 06 a les 06 UTC
Vent 16 kt del Est/Nord-Est
Visibilitat: 10 km
Núvols disperses a una alçada de 2500 ft
Cel ennuvolat a una alçada de 4500 ft
xàfecs en les proximitats

TAF: PHLI 050536Z 0506/0606 06016KT P6SM VCSH SCT025 BKN045

Observacions i pronòstics meteorològics de més de 4000 aeroports (METAR i TAF).

Les estacions disponibles són els punts grocs i vermells al mapa.

Posi el ratolí al punt desitjat per veure el nom de l'estació.

Feu clic per veure les observacions i els pronòstics meteorològics.

Per canviar el mapa: feu clic els botons verds amb una creu de color negre per apropar; al botó verd amb un guió per allunyar la imatge; o en les fletxes verdes per a mapes adjacents.


METAR-TAF: